Mohe, China
Current Conditions -  °F | °C
As of 7:30 AM on Sunday 26 Oct 2014 (Local Time) from UHBB Reporting Station
Snow Showers Snow Showers  
Wind Chill: 22°   Ceiling: 200
Heat Index: 32°   Visibility: 0.18mi
Dew Point: 32°   Wind: 13mph
Humidity: 100%   Direction: 10°N
Pressure: 29.77"   Gusts: NA
Location:  53.13°N, 122.52°E
Report Text: UHBB 252330Z 01006MPS 0300 +SHSN VV002 M00/M00 Q1008 NOSIG RMKQBB060 QFE738/0985 36592029
Loading
Personal Weather Stations






























Interactive Weather Map
Tropical Storm Tracking
New forecast layout! Learn more

10-Day Weather Forecast

Advertisements
Track Severe Weather on mobile